createdAt,value
2022-12-09T00:01:22.024Z,9.70
2022-12-09T00:03:24.458Z,9.73
2022-12-09T00:05:28.885Z,9.71
2022-12-09T00:07:31.355Z,9.76
2022-12-09T00:09:33.893Z,9.76
2022-12-09T00:11:36.089Z,9.75
2022-12-09T00:13:38.472Z,9.81
2022-12-09T00:15:42.663Z,9.89
2022-12-09T00:17:45.204Z,9.88
2022-12-09T00:19:47.406Z,9.94
2022-12-09T00:21:49.398Z,9.97
2022-12-09T00:23:53.147Z,9.98
2022-12-09T00:25:58.483Z,9.98
2022-12-09T00:28:00.625Z,9.99
2022-12-09T00:30:03.172Z,9.97
2022-12-09T00:32:05.729Z,10.03
2022-12-09T00:34:11.057Z,10.03
2022-12-09T00:36:18.427Z,9.99
2022-12-09T00:38:20.407Z,9.99
2022-12-09T00:40:22.602Z,10.00
2022-12-09T00:42:25.207Z,10.01
2022-12-09T00:44:28.369Z,10.04
2022-12-09T00:46:30.612Z,10.06
2022-12-09T00:48:34.887Z,10.03
2022-12-09T00:50:37.013Z,10.05
2022-12-09T00:52:39.350Z,10.09
2022-12-09T00:54:42.882Z,10.08
2022-12-09T00:56:45.411Z,10.03
2022-12-09T00:58:48.074Z,10.06
2022-12-09T01:00:51.200Z,10.05
2022-12-09T01:02:53.308Z,10.10
2022-12-09T01:04:56.555Z,10.14
2022-12-09T01:06:59.178Z,10.07
2022-12-09T01:09:04.158Z,10.10
2022-12-09T01:11:11.876Z,10.06
2022-12-09T01:13:15.385Z,10.07
2022-12-09T01:15:17.512Z,10.13
2022-12-09T01:17:19.923Z,10.10
2022-12-09T01:19:21.930Z,10.08
2022-12-09T01:21:25.023Z,10.14
2022-12-09T01:23:27.291Z,10.16
2022-12-09T01:25:29.794Z,10.09
2022-12-09T01:27:32.808Z,10.14
2022-12-09T01:29:35.622Z,10.17
2022-12-09T01:31:39.044Z,10.16
2022-12-09T01:33:44.737Z,10.13
2022-12-09T01:35:46.833Z,10.15
2022-12-09T01:37:49.016Z,10.15
2022-12-09T01:39:53.724Z,10.17
2022-12-09T01:41:56.102Z,10.15
2022-12-09T01:44:16.492Z,10.10
2022-12-09T01:46:18.668Z,10.12
2022-12-09T01:48:23.973Z,10.14
2022-12-09T01:51:30.413Z,10.12
2022-12-09T01:53:37.982Z,10.09
2022-12-09T01:55:41.587Z,10.13
2022-12-09T01:57:45.656Z,10.13
2022-12-09T01:59:47.860Z,10.17
2022-12-09T02:01:54.770Z,10.16
2022-12-09T02:03:57.079Z,10.10
2022-12-09T02:06:02.093Z,10.16
2022-12-09T02:08:07.743Z,10.18
2022-12-09T02:10:14.759Z,10.15
2022-12-09T02:12:41.706Z,10.14
2022-12-09T02:15:06.691Z,10.14
2022-12-09T02:17:26.327Z,10.19
2022-12-09T02:20:01.719Z,10.25
2022-12-09T02:22:06.985Z,10.24
2022-12-09T02:24:16.471Z,10.22
2022-12-09T02:26:31.079Z,10.18
2022-12-09T02:28:57.987Z,10.20
2022-12-09T02:31:16.221Z,10.17
2022-12-09T02:33:34.057Z,10.17
2022-12-09T02:35:44.002Z,10.21
2022-12-09T02:37:52.355Z,10.15
2022-12-09T02:39:59.615Z,10.19
2022-12-09T02:42:06.725Z,10.17
2022-12-09T02:44:19.497Z,10.15
2022-12-09T02:46:22.702Z,10.18
2022-12-09T02:48:32.348Z,10.19
2022-12-09T02:50:38.217Z,10.21
2022-12-09T02:52:42.816Z,10.20
2022-12-09T02:54:46.959Z,10.18
2022-12-09T02:56:57.069Z,10.16
2022-12-09T02:59:02.651Z,10.15
2022-12-09T03:01:05.162Z,10.11
2022-12-09T03:03:11.816Z,10.12
2022-12-09T03:05:26.212Z,10.15
2022-12-09T03:07:44.672Z,10.07
2022-12-09T03:09:52.982Z,10.08
2022-12-09T03:11:59.693Z,10.08
2022-12-09T03:14:13.216Z,9.99
2022-12-09T03:16:18.428Z,10.09
2022-12-09T03:18:21.738Z,10.07
2022-12-09T03:20:28.937Z,10.13
2022-12-09T03:22:35.534Z,10.10
2022-12-09T03:24:42.678Z,10.11
2022-12-09T03:26:46.654Z,10.12
2022-12-09T03:28:51.409Z,10.09
2022-12-09T03:30:55.466Z,10.12
2022-12-09T03:32:58.829Z,10.17
2022-12-09T03:35:21.940Z,10.07
2022-12-09T03:37:24.524Z,10.07
2022-12-09T03:39:32.323Z,10.10
2022-12-09T03:41:34.915Z,10.16
2022-12-09T03:43:43.313Z,10.12
2022-12-09T03:45:46.375Z,10.14
2022-12-09T03:47:55.067Z,10.13
2022-12-09T03:49:58.730Z,10.17
2022-12-09T03:52:10.673Z,10.16
2022-12-09T03:54:35.479Z,10.12
2022-12-09T03:56:45.527Z,10.21
2022-12-09T03:58:50.436Z,10.22
2022-12-09T04:00:53.007Z,10.25
2022-12-09T04:02:55.314Z,10.25
2022-12-09T04:04:57.930Z,10.21
2022-12-09T04:07:00.508Z,10.22
2022-12-09T04:09:03.733Z,10.24
2022-12-09T04:11:06.251Z,10.26
2022-12-09T04:13:08.556Z,10.23
2022-12-09T04:15:11.019Z,10.27
2022-12-09T04:17:13.445Z,10.23
2022-12-09T04:19:15.686Z,10.25
2022-12-09T04:21:17.875Z,10.26
2022-12-09T04:23:20.343Z,10.25
2022-12-09T04:25:24.017Z,10.23
2022-12-09T04:27:26.447Z,10.23
2022-12-09T04:29:31.378Z,10.21
2022-12-09T04:31:33.585Z,10.14
2022-12-09T04:33:35.887Z,10.17
2022-12-09T04:35:37.846Z,10.14
2022-12-09T04:37:40.348Z,10.20
2022-12-09T04:39:42.666Z,10.21
2022-12-09T04:41:44.807Z,10.15
2022-12-09T04:43:49.132Z,10.14
2022-12-09T04:45:51.705Z,10.14
2022-12-09T04:47:54.161Z,10.15
2022-12-09T04:49:57.073Z,10.16
2022-12-09T04:52:00.799Z,10.17
2022-12-09T04:54:03.118Z,10.13
2022-12-09T04:56:08.481Z,10.17
2022-12-09T04:58:10.911Z,10.20
2022-12-09T05:00:14.287Z,10.20
2022-12-09T05:02:17.177Z,10.23
2022-12-09T05:04:21.637Z,10.22
2022-12-09T05:06:24.521Z,10.24
2022-12-09T05:08:31.467Z,10.21
2022-12-09T05:10:34.672Z,10.21
2022-12-09T05:12:37.187Z,10.23
2022-12-09T05:14:39.502Z,10.26
2022-12-09T05:16:41.559Z,10.23
2022-12-09T05:18:45.545Z,10.19
2022-12-09T05:20:48.322Z,10.22
2022-12-09T05:22:51.988Z,10.30
2022-12-09T05:24:54.287Z,10.28
2022-12-09T05:26:56.601Z,10.25
2022-12-09T05:28:59.015Z,10.25
2022-12-09T05:31:03.132Z,10.25
2022-12-09T05:33:06.016Z,10.27
2022-12-09T05:35:08.804Z,10.21
2022-12-09T05:37:15.453Z,10.25
2022-12-09T05:39:18.230Z,10.28
2022-12-09T05:41:20.988Z,10.24
2022-12-09T05:43:23.322Z,10.23
2022-12-09T05:45:25.679Z,10.20
2022-12-09T05:47:29.983Z,10.25
2022-12-09T05:49:32.256Z,10.29
2022-12-09T05:51:34.675Z,10.28
2022-12-09T05:53:37.354Z,10.24
2022-12-09T05:55:42.345Z,10.18
2022-12-09T05:57:45.356Z,10.16
2022-12-09T05:59:48.121Z,10.09
2022-12-09T06:01:51.123Z,10.14
2022-12-09T06:03:54.776Z,10.11
2022-12-09T06:05:57.990Z,10.14
2022-12-09T06:08:03.753Z,10.20
2022-12-09T06:10:10.224Z,10.20
2022-12-09T06:12:15.918Z,10.18
2022-12-09T06:14:18.038Z,10.22
2022-12-09T06:16:21.670Z,10.22
2022-12-09T06:18:23.926Z,10.20
2022-12-09T06:20:27.082Z,10.24
2022-12-09T06:22:29.418Z,10.29
2022-12-09T06:24:34.582Z,10.34
2022-12-09T06:26:36.912Z,10.33
2022-12-09T06:28:38.967Z,10.35
2022-12-09T06:30:41.406Z,10.33
2022-12-09T06:32:43.793Z,10.28
2022-12-09T06:34:46.425Z,10.20
2022-12-09T06:36:48.635Z,10.17
2022-12-09T06:38:52.049Z,10.18
2022-12-09T06:40:54.369Z,10.15
2022-12-09T06:42:56.538Z,10.18
2022-12-09T06:44:58.797Z,10.21
2022-12-09T06:47:01.061Z,10.23
2022-12-09T06:49:03.700Z,10.19
2022-12-09T06:51:08.871Z,10.16
2022-12-09T06:53:11.358Z,10.14
2022-12-09T06:55:14.290Z,10.24
2022-12-09T06:57:16.626Z,10.24
2022-12-09T06:59:18.905Z,10.25
2022-12-09T07:01:23.858Z,10.17
2022-12-09T07:03:28.375Z,10.17
2022-12-09T07:05:32.348Z,10.14
2022-12-09T07:07:35.138Z,10.19
2022-12-09T07:09:40.553Z,10.31
2022-12-09T07:11:43.435Z,10.30
2022-12-09T07:13:48.562Z,10.40
2022-12-09T07:15:50.961Z,10.46
2022-12-09T07:17:53.512Z,10.46
2022-12-09T07:19:57.270Z,10.51
2022-12-09T07:22:02.443Z,10.56
2022-12-09T07:24:05.282Z,10.56
2022-12-09T07:26:08.810Z,10.55
2022-12-09T07:28:11.449Z,10.52
2022-12-09T07:30:14.213Z,10.55
2022-12-09T07:32:16.471Z,10.56
2022-12-09T07:34:19.326Z,10.63
2022-12-09T07:36:25.773Z,10.69
2022-12-09T07:38:28.564Z,10.71
2022-12-09T07:40:31.007Z,10.72
2022-12-09T07:42:33.101Z,10.70
2022-12-09T07:44:39.954Z,10.63
2022-12-09T07:46:42.198Z,10.70
2022-12-09T07:48:45.065Z,10.76
2022-12-09T07:50:47.398Z,10.79
2022-12-09T07:52:49.805Z,10.73
2022-12-09T07:54:55.211Z,10.65
2022-12-09T07:56:57.890Z,10.60
2022-12-09T07:59:00.282Z,10.59
2022-12-09T08:01:12.088Z,10.59
2022-12-09T08:03:14.743Z,10.66
2022-12-09T08:05:17.710Z,10.62
2022-12-09T08:07:20.385Z,10.65
2022-12-09T08:09:23.685Z,10.61
2022-12-09T08:11:28.494Z,10.61
2022-12-09T08:13:31.079Z,10.57
2022-12-09T08:15:33.480Z,10.64
2022-12-09T08:17:35.803Z,10.61
2022-12-09T08:19:38.797Z,10.65
2022-12-09T08:21:41.566Z,10.62
2022-12-09T08:23:44.981Z,10.62
2022-12-09T08:25:53.684Z,10.66
2022-12-09T08:27:55.800Z,10.63
2022-12-09T08:29:58.480Z,10.65
2022-12-09T08:32:00.880Z,10.71
2022-12-09T08:34:08.281Z,10.72
2022-12-09T08:36:22.403Z,10.63
2022-12-09T08:38:24.602Z,10.78
2022-12-09T08:40:27.039Z,10.80
2022-12-09T08:42:30.682Z,10.80
2022-12-09T08:44:32.992Z,10.84
2022-12-09T08:46:37.233Z,10.94
2022-12-09T08:48:41.802Z,10.90
2022-12-09T08:50:44.109Z,10.97
2022-12-09T08:52:46.447Z,10.88
2022-12-09T08:54:48.886Z,10.97
2022-12-09T08:56:55.255Z,11.02
2022-12-09T08:58:58.018Z,11.04
2022-12-09T09:01:00.530Z,11.10
2022-12-09T09:03:02.963Z,11.11
2022-12-09T09:05:05.588Z,11.17
2022-12-09T09:07:09.211Z,11.21
2022-12-09T09:09:15.210Z,11.21
2022-12-09T09:11:20.690Z,11.32
2022-12-09T09:13:23.801Z,11.33
2022-12-09T09:15:25.881Z,11.34
2022-12-09T09:17:28.216Z,11.38
2022-12-09T09:19:31.844Z,11.39
2022-12-09T09:21:34.693Z,11.37
2022-12-09T09:23:37.511Z,11.46
2022-12-09T09:25:46.299Z,11.42
2022-12-09T09:27:48.494Z,11.46
2022-12-09T09:29:50.963Z,11.50
2022-12-09T09:31:57.486Z,11.51
2022-12-09T09:34:00.009Z,11.49
2022-12-09T09:36:52.802Z,11.43
2022-12-09T09:38:56.735Z,11.47
2022-12-09T09:41:00.841Z,11.45
2022-12-09T09:43:03.577Z,11.54
2022-12-09T09:45:14.600Z,11.57
2022-12-09T09:47:39.754Z,11.62
2022-12-09T09:49:55.619Z,11.58
2022-12-09T09:52:03.764Z,11.62
2022-12-09T09:54:08.904Z,11.64
2022-12-09T09:56:19.840Z,11.66
2022-12-09T09:58:39.766Z,11.59
2022-12-09T10:01:07.363Z,11.60
2022-12-09T10:03:15.005Z,11.64
2022-12-09T10:05:36.230Z,11.67
2022-12-09T10:07:41.294Z,11.83
2022-12-09T10:10:04.206Z,11.78
2022-12-09T10:12:06.715Z,11.84
2022-12-09T10:14:20.348Z,11.86
2022-12-09T10:16:44.560Z,11.87
2022-12-09T10:19:04.073Z,11.93
2022-12-09T10:21:20.260Z,11.96
2022-12-09T10:23:26.346Z,12.03
2022-12-09T10:25:31.976Z,11.98
2022-12-09T10:27:41.952Z,11.99
2022-12-09T10:29:56.941Z,11.89
2022-12-09T10:31:59.510Z,11.95
2022-12-09T10:34:02.326Z,12.00
2022-12-09T10:36:06.388Z,12.08
2022-12-09T10:38:14.841Z,12.02
2022-12-09T10:40:25.660Z,11.97
2022-12-09T10:42:47.815Z,12.12
2022-12-09T10:46:17.250Z,12.16
2022-12-09T10:48:32.458Z,12.25
2022-12-09T10:50:37.280Z,12.33
2022-12-09T10:52:44.493Z,12.35
2022-12-09T10:54:48.336Z,12.41
2022-12-09T10:57:12.665Z,12.46
2022-12-09T10:59:17.986Z,12.52
2022-12-09T11:01:20.377Z,12.59
2022-12-09T11:03:42.452Z,12.59
2022-12-09T11:05:45.013Z,12.67
2022-12-09T11:07:50.168Z,12.69
2022-12-09T11:10:17.393Z,12.65
2022-12-09T11:12:40.092Z,12.78
2022-12-09T11:14:52.530Z,12.88
2022-12-09T11:17:16.563Z,12.95
2022-12-09T11:19:28.552Z,13.02
2022-12-09T11:21:36.909Z,12.96
2022-12-09T11:23:58.804Z,13.01
2022-12-09T11:26:07.728Z,13.13
2022-12-09T11:28:16.461Z,13.15
2022-12-09T11:30:25.110Z,13.20
2022-12-09T11:32:27.736Z,13.25
2022-12-09T11:34:30.848Z,13.28
2022-12-09T11:36:43.972Z,13.32
2022-12-09T11:38:49.961Z,13.35
2022-12-09T11:41:06.208Z,13.28
2022-12-09T11:43:08.479Z,13.31
2022-12-09T11:45:26.861Z,13.27
2022-12-09T11:50:22.767Z,13.25
2022-12-09T11:52:30.489Z,13.12
2022-12-09T11:54:40.478Z,13.08
2022-12-09T11:56:43.719Z,13.05
2022-12-09T11:58:51.547Z,13.05
2022-12-09T12:00:56.456Z,13.04
2022-12-09T12:03:12.216Z,13.07
2022-12-09T12:05:38.434Z,13.06
2022-12-09T12:07:57.977Z,13.13
2022-12-09T12:10:01.651Z,13.22
2022-12-09T12:12:13.832Z,13.29
2022-12-09T12:14:27.750Z,13.33
2022-12-09T12:16:54.692Z,13.42
2022-12-09T12:19:15.649Z,13.43
2022-12-09T12:21:20.603Z,13.51
2022-12-09T12:23:48.524Z,13.56
2022-12-09T12:26:09.149Z,13.57
2022-12-09T12:28:41.857Z,13.61
2022-12-09T12:31:11.762Z,13.63
2022-12-09T12:36:07.262Z,13.65
2022-12-09T12:38:51.459Z,13.71
2022-12-09T12:41:05.720Z,13.81
2022-12-09T12:43:53.808Z,13.87
2022-12-09T12:46:20.033Z,13.92
2022-12-09T12:48:37.973Z,13.98
2022-12-09T12:50:57.991Z,13.97
2022-12-09T12:53:23.913Z,14.03
2022-12-09T12:55:32.030Z,14.07
2022-12-09T12:57:49.248Z,14.15
2022-12-09T13:00:07.466Z,14.16
2022-12-09T13:02:30.497Z,14.30
2022-12-09T13:04:52.830Z,14.34
2022-12-09T13:07:06.287Z,14.40
2022-12-09T13:09:29.341Z,14.45
2022-12-09T13:12:05.682Z,14.44
2022-12-09T13:14:14.419Z,14.45
2022-12-09T13:16:41.413Z,14.45
2022-12-09T13:18:44.850Z,14.43
2022-12-09T13:20:49.097Z,14.39
2022-12-09T13:23:05.669Z,14.28
2022-12-09T13:25:44.767Z,14.20
2022-12-09T13:28:13.126Z,14.12
2022-12-09T13:30:27.349Z,14.15
2022-12-09T13:32:56.518Z,14.13
2022-12-09T13:35:12.377Z,14.12
2022-12-09T13:37:54.799Z,14.10
2022-12-09T13:39:58.777Z,14.10
2022-12-09T13:42:19.501Z,14.10
2022-12-09T13:44:21.797Z,14.09
2022-12-09T13:46:28.635Z,14.06
2022-12-09T13:48:30.804Z,14.09
2022-12-09T13:50:49.577Z,14.05
2022-12-09T13:52:55.025Z,14.06
2022-12-09T13:54:58.000Z,14.07
2022-12-09T13:57:19.242Z,14.07
2022-12-09T13:59:30.925Z,14.01
2022-12-09T14:01:58.715Z,14.07
2022-12-09T14:04:18.822Z,14.06
2022-12-09T14:06:46.811Z,14.07
2022-12-09T14:08:53.564Z,14.03
2022-12-09T14:10:55.781Z,14.01
2022-12-09T14:12:57.730Z,14.02
2022-12-09T14:15:25.320Z,13.86
2022-12-09T14:17:27.192Z,13.87
2022-12-09T14:19:30.136Z,13.91
2022-12-09T14:21:33.635Z,13.94
2022-12-09T14:23:35.693Z,13.96
2022-12-09T14:25:37.501Z,13.95
2022-12-09T14:27:39.573Z,13.91
2022-12-09T14:29:50.910Z,13.89
2022-12-09T14:31:55.848Z,13.82
2022-12-09T14:33:57.819Z,13.84
2022-12-09T14:36:23.541Z,13.78
2022-12-09T14:39:07.991Z,13.79
2022-12-09T14:41:12.666Z,13.80
2022-12-09T14:43:33.276Z,13.71
2022-12-09T14:53:24.096Z,13.70
2022-12-09T14:55:30.065Z,13.74
2022-12-09T14:57:44.134Z,13.72
2022-12-09T14:59:51.832Z,13.63
2022-12-09T15:01:59.886Z,13.65
2022-12-09T15:04:02.156Z,13.64
2022-12-09T15:06:11.699Z,13.60
2022-12-09T15:08:32.076Z,13.47
2022-12-09T15:10:38.086Z,13.54
2022-12-09T15:12:43.170Z,13.55
2022-12-09T15:14:46.517Z,13.49
2022-12-09T15:16:50.956Z,13.51
2022-12-09T15:18:54.803Z,13.51
2022-12-09T15:21:01.680Z,13.45
2022-12-09T15:23:29.703Z,13.50
2022-12-09T15:25:34.038Z,13.55
2022-12-09T15:27:36.195Z,13.52
2022-12-09T15:29:38.076Z,13.50
2022-12-09T15:31:47.857Z,13.44
2022-12-09T15:33:53.122Z,13.45
2022-12-09T15:36:11.623Z,13.42
2022-12-09T15:38:13.747Z,13.43
2022-12-09T15:40:19.200Z,13.46
2022-12-09T15:42:27.383Z,13.43
2022-12-09T15:44:46.718Z,13.43
2022-12-09T15:46:52.033Z,13.46
2022-12-09T15:48:59.626Z,13.42
2022-12-09T15:51:07.934Z,13.45
2022-12-09T15:53:31.198Z,13.43
2022-12-09T15:55:38.037Z,13.43
2022-12-09T15:57:42.222Z,13.43
2022-12-09T15:59:55.453Z,13.43
2022-12-09T16:01:59.903Z,13.46
2022-12-09T16:04:06.553Z,13.47
2022-12-09T16:06:09.772Z,13.46
2022-12-09T16:08:12.245Z,13.44
2022-12-09T16:10:16.832Z,13.43
2022-12-09T16:12:29.008Z,13.38
2022-12-09T16:14:44.674Z,13.41
2022-12-09T16:17:01.729Z,13.40
2022-12-09T16:19:03.737Z,13.46
2022-12-09T16:21:28.005Z,13.46
2022-12-09T16:23:30.259Z,13.48
2022-12-09T16:25:38.822Z,13.47
2022-12-09T16:27:48.658Z,13.42
2022-12-09T16:29:54.310Z,13.47
2022-12-09T16:32:18.278Z,13.38
2022-12-09T16:34:22.167Z,13.38
2022-12-09T16:36:31.053Z,13.44
2022-12-09T16:38:37.264Z,13.47
2022-12-09T16:40:45.266Z,13.50
2022-12-09T16:42:49.206Z,13.51
2022-12-09T16:44:51.203Z,13.50
2022-12-09T16:47:27.944Z,13.49
2022-12-09T16:49:30.162Z,13.49
2022-12-09T16:51:34.997Z,13.49
2022-12-09T16:53:46.300Z,13.46
2022-12-09T16:55:59.970Z,13.50
2022-12-09T16:58:02.472Z,13.56
2022-12-09T17:00:05.988Z,13.60
2022-12-09T17:02:24.179Z,13.57
2022-12-09T17:04:28.968Z,13.64
2022-12-09T17:06:31.016Z,13.71
2022-12-09T17:08:33.503Z,13.73
2022-12-09T17:10:35.825Z,13.73
2022-12-09T17:12:38.090Z,13.73
2022-12-09T17:14:40.229Z,13.76
2022-12-09T17:16:42.670Z,13.80
2022-12-09T17:18:44.558Z,13.80
2022-12-09T17:20:46.673Z,13.79
2022-12-09T17:22:48.750Z,13.78
2022-12-09T17:24:50.853Z,13.80
2022-12-09T17:26:52.823Z,13.76
2022-12-09T17:29:01.270Z,13.71
2022-12-09T17:31:12.647Z,13.71
2022-12-09T17:33:14.544Z,13.67
2022-12-09T17:35:16.797Z,13.69
2022-12-09T17:37:19.205Z,13.70
2022-12-09T17:39:22.184Z,13.72
2022-12-09T17:41:24.340Z,13.75
2022-12-09T17:43:26.512Z,13.69
2022-12-09T17:45:28.503Z,13.72
2022-12-09T17:47:30.622Z,13.77
2022-12-09T17:49:33.127Z,13.79
2022-12-09T17:51:36.537Z,13.83
2022-12-09T17:53:40.322Z,13.79
2022-12-09T17:55:42.747Z,13.76
2022-12-09T17:57:47.689Z,13.81
2022-12-09T17:59:53.459Z,13.83
2022-12-09T18:01:55.750Z,13.84
2022-12-09T18:04:04.407Z,13.82
2022-12-09T18:06:09.986Z,13.81
2022-12-09T18:08:14.018Z,13.84
2022-12-09T18:10:16.273Z,13.89
2022-12-09T18:12:20.736Z,13.99
2022-12-09T18:14:23.520Z,14.02
2022-12-09T18:16:25.811Z,14.08
2022-12-09T18:18:30.696Z,14.10
2022-12-09T18:20:33.203Z,14.13
2022-12-09T18:22:35.389Z,14.17
2022-12-09T18:24:37.398Z,14.20
2022-12-09T18:26:42.273Z,14.26
2022-12-09T18:28:44.665Z,14.28
2022-12-09T18:30:47.010Z,14.27
2022-12-09T18:32:49.373Z,14.35
2022-12-09T18:34:51.506Z,14.38
2022-12-09T18:36:54.297Z,14.36
2022-12-09T18:38:59.586Z,14.38
2022-12-09T18:41:01.550Z,14.37
2022-12-09T18:43:03.791Z,14.41
2022-12-09T18:45:06.225Z,14.45
2022-12-09T18:47:08.472Z,14.47
2022-12-09T18:49:16.430Z,14.47
2022-12-09T18:51:20.893Z,14.50
2022-12-09T18:53:23.354Z,14.53
2022-12-09T18:55:25.598Z,14.55
2022-12-09T18:57:30.718Z,14.54
2022-12-09T18:59:33.696Z,14.48
2022-12-09T19:01:41.103Z,14.51
2022-12-09T19:03:43.700Z,14.53
2022-12-09T19:05:45.728Z,14.55
2022-12-09T19:07:47.921Z,14.56
2022-12-09T19:09:49.990Z,14.58
2022-12-09T19:11:53.483Z,14.56
2022-12-09T19:13:56.475Z,14.58
2022-12-09T19:16:03.324Z,14.56
2022-12-09T19:18:05.483Z,14.55
2022-12-09T19:20:08.416Z,14.59
2022-12-09T19:22:10.703Z,14.65
2022-12-09T19:24:19.071Z,14.65
2022-12-09T19:26:24.671Z,14.63
2022-12-09T19:28:26.761Z,14.67
2022-12-09T19:30:29.231Z,14.61
2022-12-09T19:32:52.343Z,14.63
2022-12-09T19:34:53.549Z,14.63
2022-12-09T19:36:58.838Z,14.61
2022-12-09T19:39:02.654Z,14.62
2022-12-09T19:41:04.989Z,14.68
2022-12-09T19:43:07.372Z,14.71
2022-12-09T19:45:13.969Z,14.74
2022-12-09T19:47:17.251Z,14.73
2022-12-09T19:49:20.969Z,14.73
2022-12-09T19:51:24.413Z,14.80
2022-12-09T19:53:26.398Z,14.79
2022-12-09T19:55:28.448Z,14.83
2022-12-09T19:57:30.644Z,14.80
2022-12-09T19:59:32.484Z,14.80
2022-12-09T20:01:39.180Z,14.81
2022-12-09T20:03:42.798Z,14.80
2022-12-09T20:05:53.391Z,14.77
2022-12-09T20:07:55.792Z,14.76
2022-12-09T20:09:57.813Z,14.78
2022-12-09T20:11:59.990Z,14.77
2022-12-09T20:14:05.453Z,14.81
2022-12-09T20:16:09.280Z,14.84
2022-12-09T20:18:14.304Z,14.84
2022-12-09T20:20:16.612Z,14.87
2022-12-09T20:22:18.659Z,14.83
2022-12-09T20:24:20.729Z,14.84
2022-12-09T20:26:25.801Z,14.88
2022-12-09T20:28:29.678Z,14.89
2022-12-09T20:30:32.507Z,14.83
2022-12-09T20:32:34.483Z,14.89
2022-12-09T20:34:36.681Z,14.92
2022-12-09T20:36:41.544Z,14.94
2022-12-09T20:38:47.225Z,14.93
2022-12-09T20:40:49.238Z,14.95
2022-12-09T20:42:51.263Z,14.94
2022-12-09T20:44:53.578Z,14.96
2022-12-09T20:46:55.415Z,14.97
2022-12-09T20:48:59.056Z,14.97
2022-12-09T20:51:07.512Z,14.95
2022-12-09T20:53:09.542Z,14.92
2022-12-09T20:55:12.755Z,14.89
2022-12-09T20:57:14.657Z,14.86
2022-12-09T20:59:16.664Z,14.85
2022-12-09T21:01:21.532Z,14.80
2022-12-09T21:03:24.004Z,14.85
2022-12-09T21:05:26.257Z,14.81
2022-12-09T21:07:28.436Z,14.85
2022-12-09T21:09:30.725Z,14.91
2022-12-09T21:11:32.781Z,14.77
2022-12-09T21:13:40.280Z,14.72
2022-12-09T21:15:42.213Z,14.70
2022-12-09T21:17:46.808Z,14.75
2022-12-09T21:19:49.098Z,14.75
2022-12-09T21:21:54.657Z,14.78
2022-12-09T21:23:59.421Z,14.88
2022-12-09T21:26:07.598Z,14.83
2022-12-09T21:28:09.462Z,14.86
2022-12-09T21:30:12.697Z,14.87
2022-12-09T21:32:14.825Z,14.86
2022-12-09T21:34:17.811Z,14.85
2022-12-09T21:36:22.537Z,14.83
2022-12-09T21:38:24.630Z,14.82
2022-12-09T21:40:27.159Z,14.79
2022-12-09T21:42:29.194Z,14.75
2022-12-09T21:44:31.223Z,14.74
2022-12-09T21:46:36.273Z,14.66
2022-12-09T21:48:39.169Z,14.61
2022-12-09T21:50:41.257Z,14.54
2022-12-09T21:52:44.276Z,14.57
2022-12-09T21:54:52.303Z,14.68
2022-12-09T21:56:57.209Z,14.78
2022-12-09T21:59:00.142Z,14.82
2022-12-09T22:01:09.517Z,14.88
2022-12-09T22:03:11.526Z,14.84
2022-12-09T22:05:13.615Z,14.84
2022-12-09T22:07:15.645Z,14.94
2022-12-09T22:09:20.855Z,14.99
2022-12-09T22:11:25.800Z,14.99
2022-12-09T22:13:28.291Z,15.00
2022-12-09T22:15:31.143Z,15.02
2022-12-09T22:17:33.393Z,15.01
2022-12-09T22:19:35.453Z,15.00
2022-12-09T22:21:37.428Z,15.00
2022-12-09T22:23:39.568Z,15.01
2022-12-09T22:25:41.771Z,15.05
2022-12-09T22:27:43.754Z,15.01
2022-12-09T22:29:45.766Z,15.05
2022-12-09T22:31:48.041Z,15.04
2022-12-09T22:33:52.042Z,14.99
2022-12-09T22:35:54.409Z,15.01
2022-12-09T22:37:59.255Z,15.01
2022-12-09T22:40:01.297Z,15.02
2022-12-09T22:42:03.819Z,14.94
2022-12-09T22:44:06.118Z,14.99
2022-12-09T22:46:14.883Z,14.96
2022-12-09T22:48:16.858Z,15.05
2022-12-09T22:50:19.091Z,14.97
2022-12-09T22:52:23.141Z,14.99
2022-12-09T22:54:25.382Z,14.99
2022-12-09T22:56:28.164Z,14.96
2022-12-09T22:58:30.443Z,14.95
2022-12-09T23:00:32.540Z,14.99
2022-12-09T23:02:35.255Z,15.00
2022-12-09T23:04:37.747Z,15.02
2022-12-09T23:06:40.947Z,15.03
2022-12-09T23:08:43.966Z,15.04
2022-12-09T23:10:45.935Z,15.05
2022-12-09T23:12:47.906Z,15.08
2022-12-09T23:14:49.887Z,15.07
2022-12-09T23:16:52.236Z,15.09
2022-12-09T23:18:56.371Z,15.14
2022-12-09T23:21:07.920Z,15.09
2022-12-09T23:23:09.930Z,15.12
2022-12-09T23:25:12.154Z,15.14
2022-12-09T23:27:14.216Z,15.15
2022-12-09T23:29:16.442Z,15.21
2022-12-09T23:31:20.721Z,15.21
2022-12-09T23:33:22.721Z,15.26
2022-12-09T23:35:24.940Z,15.21
2022-12-09T23:37:26.920Z,15.19
2022-12-09T23:39:28.900Z,15.13
2022-12-09T23:41:31.509Z,15.14
2022-12-09T23:43:35.400Z,15.21
2022-12-09T23:45:37.497Z,15.18
2022-12-09T23:47:42.534Z,15.20
2022-12-09T23:49:44.682Z,15.17
2022-12-09T23:51:46.646Z,15.20
2022-12-09T23:53:50.645Z,15.19
2022-12-09T23:55:52.681Z,15.24
2022-12-09T23:57:55.021Z,15.23
2022-12-09T23:59:57.278Z,15.21
